| time (UTC) | temp F | wind direction | speed MPH | gust MPH | rain 1hr in | rain 24hr in | rain mn in | humidity % | barometer mb |
| 20260507191559 | 84 | 360 | 2.0 | 8.0 | 0.00 | 0.00 | 0.00 | 29 | 1011.7 |
| 20260507190105 | 84 | 360 | 7.0 | 12.0 | 0.00 | 0.00 | 0.00 | 26 | 1011.9 |
| 20260507184559 | 83 | 0 | 0.0 | 9.0 | 0.00 | 0.00 | 0.00 | 26 | 1012.0 |
| 20260507183100 | 83 | 360 | 7.0 | 11.0 | 0.00 | 0.00 | 0.00 | 26 | 1012.1 |
| 20260507181558 | 82 | 360 | 1.0 | 11.0 | 0.00 | 0.00 | 0.00 | 27 | 1012.2 |
| 20260507180105 | 81 | 0 | 1.0 | 10.0 | 0.00 | 0.00 | 0.00 | 28 | 1012.3 |
| 20260507174559 | 80 | 0 | 0.0 | 4.0 | 0.00 | 0.00 | 0.00 | 31 | 1012.3 |
| 20260507173101 | 80 | 360 | 2.0 | 8.0 | 0.00 | 0.00 | 0.00 | 31 | 1012.6 |
| 20260507171602 | 78 | 360 | 2.0 | 10.0 | 0.00 | 0.00 | 0.00 | 33 | 1012.5 |
| 20260507170059 | 78 | 360 | 2.0 | 10.0 | 0.00 | 0.00 | 0.00 | 33 | 1012.7 |
| 20260507164601 | 77 | 360 | 2.0 | 9.0 | 0.00 | 0.00 | 0.00 | 35 | 1012.9 |
| 20260507163105 | 76 | 360 | 2.0 | 14.0 | 0.00 | 0.00 | 0.00 | 36 | 1012.9 |
| 20260507161559 | 76 | 360 | 0.0 | 6.0 | 0.00 | 0.00 | 0.00 | 39 | 1012.8 |
| 20260507154558 | 74 | 0 | 0.0 | 2.0 | 0.00 | 0.00 | 0.00 | 45 | 1012.8 |
| 20260507153058 | 72 | 0 | 0.0 | 4.0 | 0.00 | 0.00 | 0.00 | 51 | 1012.7 |
| 20260507151559 | 71 | 360 | 0.0 | 2.0 | 0.00 | 0.00 | 0.00 | 55 | 1012.6 |
| 20260507150058 | 69 | 0 | 0.0 | 3.0 | 0.00 | 0.00 | 0.00 | 60 | 1012.7 |
| 20260507144602 | 68 | 0 | 0.0 | 1.0 | 0.00 | 0.00 | 0.00 | 62 | 1012.5 |
| 20260507143102 | 67 | 0 | 0.0 | 1.0 | 0.00 | 0.00 | 0.00 | 61 | 1012.6 |
| 20260507141603 | 64 | 0 | 0.0 | 1.0 | 0.00 | 0.00 | 0.00 | 62 | 1012.4 |
| 20260507140125 | 60 | 0 | 0.0 | 0.0 | 0.00 | 0.00 | 0.00 | 61 | 1012.5 |
| 20260507134558 | 57 | 0 | 0.0 | 0.0 | 0.00 | 0.00 | 0.00 | 63 | 1012.2 |
| 20260507133100 | 54 | 0 | 0.0 | 1.0 | 0.00 | 0.00 | 0.00 | 65 | 1012.1 |
| 20260507131614 | 52 | 0 | 0.0 | 1.0 | 0.00 | 0.00 | 0.00 | 66 | 1011.8 |
| 20260507130111 | 51 | 0 | 0.0 | 1.0 | 0.00 | 0.00 | 0.00 | 67 | 1011.8 |
| 20260507124611 | 51 | 0 | 0.0 | 0.0 | 0.00 | 0.00 | 0.00 | 68 | 1011.5 |
| 20260507123101 | 51 | 0 | 0.0 | 1.0 | 0.00 | 0.00 | 0.00 | 68 | 1011.6 |
| 20260507121602 | 51 | 0 | 0.0 | 1.0 | 0.00 | 0.00 | 0.00 | 70 | 1011.4 |
| 20260507120057 | 51 | 0 | 0.0 | 0.0 | 0.00 | 0.00 | 0.00 | 70 | 1011.3 |
| 20260507114606 | 52 | 0 | 0.0 | 0.0 | 0.00 | 0.00 | 0.00 | 69 | 1011.3 |
| 20260507113057 | 52 | 0 | 0.0 | 0.0 | 0.00 | 0.00 | 0.00 | 68 | 1011.2 |
| 20260507111559 | 52 | 0 | 0.0 | 0.0 | 0.00 | 0.00 | 0.00 | 68 | 1011.2 |
| 20260507110059 | 52 | 0 | 0.0 | 0.0 | 0.00 | 0.00 | 0.00 | 68 | 1011.3 |
| 20260507104557 | 53 | 0 | 0.0 | 0.0 | 0.00 | 0.00 | 0.00 | 70 | 1011.3 |
| 20260507103059 | 53 | 0 | 0.0 | 0.0 | 0.00 | 0.00 | 0.00 | 69 | 1011.2 |
| 20260507101557 | 53 | 261 | 0.0 | 1.0 | 0.00 | 0.00 | 0.00 | 68 | 1011.4 |
| 20260507100059 | 53 | 0 | 0.0 | 1.0 | 0.00 | 0.00 | 0.00 | 69 | 1011.6 |
| 20260507094557 | 54 | 0 | 0.0 | 0.0 | 0.00 | 0.00 | 0.00 | 70 | 1011.6 |
| 20260507093058 | 54 | 0 | 0.0 | 0.0 | 0.00 | 0.00 | 0.00 | 70 | 1011.6 |
| 20260507091606 | 54 | 0 | 0.0 | 0.0 | 0.00 | 0.00 | 0.00 | 69 | 1011.7 |
| 20260507090056 | 54 | 0 | 0.0 | 1.0 | 0.00 | 0.00 | 0.00 | 67 | 1011.7 |
| 20260507084559 | 54 | 0 | 0.0 | 0.0 | 0.00 | 0.00 | 0.00 | 66 | 1011.8 |
| 20260507083102 | 55 | 0 | 0.0 | 0.0 | 0.00 | 0.00 | 0.00 | 65 | 1011.9 |
| 20260507081559 | 55 | 0 | 0.0 | 0.0 | 0.00 | 0.00 | 0.00 | 63 | 1011.9 |
| 20260507080135 | 56 | 0 | 0.0 | 0.0 | 0.00 | 0.00 | 0.00 | 62 | 1012.1 |
| 20260507074605 | 57 | 0 | 0.0 | 1.0 | 0.00 | 0.00 | 0.00 | 61 | 1012.2 |
| 20260507073111 | 58 | 0 | 0.0 | 0.0 | 0.00 | 0.00 | 0.00 | 59 | 1012.3 |
| 20260507071606 | 58 | 0 | 0.0 | 1.0 | 0.00 | 0.00 | 0.00 | 56 | 1012.3 |
| 20260507070057 | 60 | 0 | 0.0 | 1.0 | 0.00 | 0.00 | 0.00 | 55 | 1012.3 |
| 20260507064600 | 58 | 0 | 0.0 | 1.0 | 0.00 | 0.00 | 0.00 | 55 | 1012.2 |
| 20260507063102 | 58 | 0 | 0.0 | 0.0 | 0.00 | 0.00 | 0.00 | 55 | 1012.1 |
| 20260507061559 | 59 | 0 | 0.0 | 0.0 | 0.00 | 0.00 | 0.00 | 54 | 1012.2 |
| 20260507060103 | 61 | 0 | 0.0 | 0.0 | 0.00 | 0.00 | 0.00 | 50 | 1012.3 |
| 20260507054605 | 62 | 0 | 0.0 | 0.0 | 0.00 | 0.00 | 0.00 | 46 | 1012.4 |
| 20260507053100 | 63 | 0 | 0.0 | 0.0 | 0.00 | 0.00 | 0.00 | 45 | 1012.3 |
| 20260507051601 | 63 | 0 | 0.0 | 0.0 | 0.00 | 0.00 | 0.00 | 44 | 1012.3 |
| 20260507050100 | 64 | 0 | 0.0 | 0.0 | 0.00 | 0.00 | 0.00 | 44 | 1012.3 |
| 20260507044623 | 65 | 0 | 0.0 | 1.0 | 0.00 | 0.00 | 0.00 | 45 | 1012.2 |
| 20260507043058 | 65 | 0 | 0.0 | 1.0 | 0.00 | 0.00 | 0.00 | 48 | 1012.1 |
| 20260507041604 | 64 | 0 | 0.0 | 1.0 | 0.00 | 0.00 | 0.00 | 48 | 1012.0 |
| 20260507040110 | 64 | 0 | 0.0 | 0.0 | 0.00 | 0.00 | 0.00 | 50 | 1012.0 |
| 20260507034603 | 66 | 0 | 0.0 | 0.0 | 0.00 | 0.00 | 0.00 | 48 | 1011.7 |
| 20260507033058 | 68 | 0 | 0.0 | 0.0 | 0.00 | 0.00 | 0.00 | 45 | 1011.6 |
| 20260507031602 | 71 | 0 | 0.0 | 0.0 | 0.00 | 0.00 | 0.00 | 42 | 1011.6 |
| 20260507030100 | 72 | 0 | 0.0 | 1.0 | 0.00 | 0.00 | 0.00 | 38 | 1011.3 |
| 20260507024602 | 74 | 263 | 0.0 | 2.0 | 0.00 | 0.00 | 0.00 | 37 | 1011.2 |
| 20260507023100 | 75 | 263 | 1.0 | 6.0 | 0.00 | 0.00 | 0.00 | 37 | 1011.3 |
| 20260507021558 | 75 | 263 | 3.0 | 11.0 | 0.00 | 0.00 | 0.00 | 37 | 1011.3 |
| 20260507020104 | 76 | 360 | 5.0 | 13.0 | 0.00 | 0.00 | 0.00 | 37 | 1011.3 |
| 20260507014608 | 77 | 360 | 5.0 | 12.0 | 0.00 | 0.00 | 0.00 | 41 | 1011.3 |
| 20260507013059 | 77 | 360 | 8.0 | 13.0 | 0.00 | 0.00 | 0.00 | 41 | 1011.2 |
| 20260507011604 | 77 | 360 | 8.0 | 14.0 | 0.00 | 0.00 | 0.00 | 39 | 1011.1 |
| 20260507010059 | 77 | 360 | 6.0 | 14.0 | 0.00 | 0.00 | 0.00 | 39 | 1011.1 |
| 20260507004602 | 77 | 360 | 10.0 | 16.0 | 0.00 | 0.00 | 0.00 | 39 | 1011.2 |
| 20260507003100 | 78 | 360 | 12.0 | 18.0 | 0.00 | 0.00 | 0.00 | 39 | 1011.1 |
| 20260507001614 | 78 | 360 | 11.0 | 17.0 | 0.00 | 0.00 | 0.00 | 39 | 1010.9 |
| 20260506234603 | 78 | 360 | 12.0 | 18.0 | 0.00 | 0.00 | 0.00 | 41 | 1011.0 |
| 20260506233059 | 78 | 360 | 13.0 | 18.0 | 0.00 | 0.00 | 0.00 | 42 | 1010.9 |
| 20260506231559 | 78 | 360 | 12.0 | 20.0 | 0.00 | 0.00 | 0.00 | 45 | 1011.2 |
| 20260506230059 | 78 | 360 | 13.0 | 20.0 | 0.00 | 0.00 | 0.00 | 44 | 1011.4 |
| 20260506224559 | 79 | 360 | 10.0 | 16.0 | 0.00 | 0.00 | 0.00 | 42 | 1011.3 |
| 20260506223057 | 79 | 360 | 11.0 | 18.0 | 0.00 | 0.00 | 0.00 | 39 | 1011.3 |
| 20260506221601 | 80 | 360 | 11.0 | 18.0 | 0.00 | 0.00 | 0.00 | 40 | 1011.5 |
| 20260506220108 | 80 | 360 | 10.0 | 17.0 | 0.00 | 0.00 | 0.00 | 38 | 1011.7 |
| 20260506214557 | 81 | 360 | 8.0 | 19.0 | 0.00 | 0.00 | 0.00 | 40 | 1012.0 |
| 20260506213102 | 80 | 360 | 8.0 | 18.0 | 0.00 | 0.00 | 0.00 | 39 | 1012.1 |
| 20260506211558 | 80 | 360 | 8.0 | 17.0 | 0.00 | 0.00 | 0.00 | 39 | 1012.1 |
| 20260506210120 | 81 | 360 | 7.0 | 13.0 | 0.00 | 0.00 | 0.00 | 36 | 1012.2 |
| 20260506204558 | 81 | 360 | 10.0 | 16.0 | 0.00 | 0.00 | 0.00 | 37 | 1012.3 |
| 20260506203141 | 81 | 360 | 10.0 | 18.0 | 0.00 | 0.00 | 0.00 | 38 | 1012.4 |
| 20260506201558 | 82 | 360 | 8.0 | 16.0 | 0.00 | 0.00 | 0.00 | 37 | 1012.5 |
| 20260506200059 | 81 | 360 | 7.0 | 19.0 | 0.00 | 0.00 | 0.00 | 37 | 1012.3 |
| 20260506194558 | 82 | 258 | 8.0 | 15.0 | 0.00 | 0.00 | 0.00 | 35 | 1012.7 |
| 20260506193057 | 82 | 291 | 4.0 | 9.0 | 0.00 | 0.00 | 0.00 | 27 | 1013.0 |